createdAt,value
2023-05-19T00:00:59.002Z,98421.56
2023-05-19T00:03:27.246Z,98423.41
2023-05-19T00:05:55.678Z,98421.78
2023-05-19T00:08:25.425Z,98432.91
2023-05-19T00:10:53.580Z,98424.19
2023-05-19T00:13:22.662Z,98424.31
2023-05-19T00:15:50.978Z,98422.19
2023-05-19T00:18:18.559Z,98416.91
2023-05-19T00:20:46.454Z,98412.84
2023-05-19T00:23:13.988Z,98417.72
2023-05-19T00:25:43.023Z,98415.81
2023-05-19T00:28:10.696Z,98411.34
2023-05-19T00:30:38.207Z,98406.94
2023-05-19T00:33:05.745Z,98412.19
2023-05-19T00:35:33.357Z,98409.22
2023-05-19T00:38:00.868Z,98411.72
2023-05-19T00:40:31.163Z,98406.34
2023-05-19T00:43:00.500Z,98418.50
2023-05-19T00:45:28.691Z,98397.25
2023-05-19T00:47:56.343Z,98403.44
2023-05-19T00:50:25.150Z,98396.97
2023-05-19T00:52:52.720Z,98401.25
2023-05-19T00:55:22.161Z,98393.09
2023-05-19T00:57:50.854Z,98393.38
2023-05-19T01:00:20.009Z,98389.63
2023-05-19T01:02:47.901Z,98390.75
2023-05-19T01:05:15.434Z,98379.38
2023-05-19T01:07:43.607Z,98399.41
2023-05-19T01:10:11.960Z,98380.88
2023-05-19T01:12:40.702Z,98378.38
2023-05-19T01:15:09.923Z,98374.66
2023-05-19T01:17:46.450Z,98368.34
2023-05-19T01:20:21.846Z,98365.06
2023-05-19T01:23:21.403Z,98374.22
2023-05-19T01:26:11.756Z,98371.81
2023-05-19T01:29:00.829Z,98362.84
2023-05-19T01:31:30.200Z,98372.75
2023-05-19T01:33:58.200Z,98364.53
2023-05-19T01:36:27.801Z,98361.75
2023-05-19T01:38:58.090Z,98373.28
2023-05-19T01:41:28.356Z,98367.22
2023-05-19T01:43:57.858Z,98359.44
2023-05-19T01:46:25.921Z,98362.53
2023-05-19T01:48:56.705Z,98355.69
2023-05-19T01:51:24.332Z,98363.19
2023-05-19T01:53:52.030Z,98370.16
2023-05-19T01:56:32.750Z,98373.31
2023-05-19T01:59:02.990Z,98373.25
2023-05-19T02:01:38.832Z,98362.84
2023-05-19T02:04:19.141Z,98378.00
2023-05-19T02:06:51.744Z,98368.94
2023-05-19T02:09:26.407Z,98361.75
2023-05-19T02:11:55.787Z,98366.34
2023-05-19T02:14:30.615Z,98361.72
2023-05-19T02:16:58.971Z,98356.72
2023-05-19T02:19:33.238Z,98356.59
2023-05-19T02:22:00.932Z,98365.88
2023-05-19T02:24:28.416Z,98353.09
2023-05-19T02:26:56.046Z,98368.41
2023-05-19T02:29:23.586Z,98369.19
2023-05-19T02:31:51.378Z,98357.31
2023-05-19T02:34:18.940Z,98349.97
2023-05-19T02:36:49.672Z,98361.44
2023-05-19T02:39:17.510Z,98352.41
2023-05-19T02:41:45.069Z,98352.97
2023-05-19T02:44:12.561Z,98352.34
2023-05-19T02:46:40.133Z,98347.63
2023-05-19T02:49:08.118Z,98349.34
2023-05-19T02:51:35.607Z,98339.19
2023-05-19T02:54:04.481Z,98321.41
2023-05-19T02:56:32.013Z,98329.38
2023-05-19T02:58:59.506Z,98329.25
2023-05-19T03:01:27.004Z,98332.06
2023-05-19T03:03:54.567Z,98331.16
2023-05-19T03:06:23.466Z,98320.28
2023-05-19T03:08:51.003Z,98333.78
2023-05-19T03:11:19.906Z,98336.06
2023-05-19T03:13:47.422Z,98326.84
2023-05-19T03:16:14.976Z,98336.13
2023-05-19T03:18:42.711Z,98334.00
2023-05-19T03:21:10.628Z,98336.13
2023-05-19T03:23:38.102Z,98337.53
2023-05-19T03:26:06.125Z,98347.97
2023-05-19T03:28:34.943Z,98335.91
2023-05-19T03:31:02.517Z,98340.44
2023-05-19T03:33:30.528Z,98336.72
2023-05-19T03:35:58.936Z,98341.22
2023-05-19T03:38:26.642Z,98337.50
2023-05-19T03:40:54.547Z,98338.75
2023-05-19T03:43:22.054Z,98349.19
2023-05-19T03:45:50.995Z,98348.38
2023-05-19T03:48:21.080Z,98336.38
2023-05-19T03:50:49.366Z,98340.66
2023-05-19T03:53:16.914Z,98354.91
2023-05-19T03:55:45.598Z,98343.19
2023-05-19T03:58:14.485Z,98351.47
2023-05-19T04:00:42.066Z,98357.59
2023-05-19T04:03:11.025Z,98360.78
2023-05-19T04:05:38.646Z,98360.38
2023-05-19T04:08:06.654Z,98357.19
2023-05-19T04:10:34.498Z,98359.84
2023-05-19T04:13:02.139Z,98365.44
2023-05-19T04:15:30.166Z,98362.22
2023-05-19T04:17:57.755Z,98358.31
2023-05-19T04:20:26.623Z,98351.19
2023-05-19T04:22:54.108Z,98362.47
2023-05-19T04:25:21.613Z,98358.84
2023-05-19T04:27:49.190Z,98359.59
2023-05-19T04:30:21.951Z,98356.44
2023-05-19T04:32:50.375Z,98357.84
2023-05-19T04:35:18.275Z,98362.81
2023-05-19T04:37:47.211Z,98365.25
2023-05-19T04:40:15.593Z,98362.66
2023-05-19T04:42:45.744Z,98370.88
2023-05-19T04:45:13.793Z,98355.06
2023-05-19T04:47:41.842Z,98355.31
2023-05-19T04:50:11.038Z,98362.75
2023-05-19T04:52:38.686Z,98359.63
2023-05-19T04:55:08.200Z,98368.19
2023-05-19T04:57:35.697Z,98363.47
2023-05-19T05:00:04.147Z,98364.84
2023-05-19T05:02:32.158Z,98366.56
2023-05-19T05:04:59.668Z,98369.81
2023-05-19T05:07:28.030Z,98363.19
2023-05-19T05:09:56.543Z,98371.09
2023-05-19T05:12:26.195Z,98362.84
2023-05-19T05:14:54.250Z,98361.59
2023-05-19T05:17:22.401Z,98361.00
2023-05-19T05:19:50.610Z,98350.03
2023-05-19T05:22:18.657Z,98350.00
2023-05-19T05:24:46.914Z,98349.69
2023-05-19T05:27:14.496Z,98349.75
2023-05-19T05:29:43.535Z,98350.16
2023-05-19T05:32:11.038Z,98347.94
2023-05-19T05:34:40.194Z,98349.56
2023-05-19T05:37:07.717Z,98351.50
2023-05-19T05:39:35.488Z,98346.81
2023-05-19T05:42:03.015Z,98348.34
2023-05-19T05:44:30.667Z,98350.03
2023-05-19T05:47:00.148Z,98346.72
2023-05-19T05:49:28.135Z,98359.50
2023-05-19T05:52:05.692Z,98364.50
2023-05-19T05:54:34.742Z,98356.34
2023-05-19T05:57:03.354Z,98352.81
2023-05-19T05:59:30.870Z,98347.69
2023-05-19T06:01:59.744Z,98346.81
2023-05-19T06:04:27.298Z,98353.06
2023-05-19T06:06:56.923Z,98354.56
2023-05-19T06:09:24.396Z,98359.81
2023-05-19T06:11:51.917Z,98351.19
2023-05-19T06:14:19.509Z,98353.72
2023-05-19T06:16:47.997Z,98348.47
2023-05-19T06:19:17.105Z,98343.16
2023-05-19T06:21:44.646Z,98344.78
2023-05-19T06:24:12.863Z,98347.53
2023-05-19T06:26:40.343Z,98337.47
2023-05-19T06:29:07.845Z,98341.59
2023-05-19T06:31:35.442Z,98340.31
2023-05-19T06:34:03.014Z,98352.19
2023-05-19T06:36:32.315Z,98350.69
2023-05-19T06:39:01.307Z,98363.22
2023-05-19T06:41:30.167Z,98352.19
2023-05-19T06:43:57.657Z,98350.13
2023-05-19T06:46:25.265Z,98350.63
2023-05-19T06:48:52.763Z,98346.50
2023-05-19T06:51:21.710Z,98349.91
2023-05-19T06:53:50.583Z,98350.06
2023-05-19T06:56:18.934Z,98349.00
2023-05-19T06:58:46.975Z,98345.66
2023-05-19T07:01:14.539Z,98340.03
2023-05-19T07:03:42.129Z,98344.41
2023-05-19T07:06:09.822Z,98335.03
2023-05-19T07:08:37.933Z,98332.38
2023-05-19T07:11:06.900Z,98330.09
2023-05-19T07:13:34.430Z,98309.50
2023-05-19T07:16:01.996Z,98316.13
2023-05-19T07:18:31.699Z,98306.03
2023-05-19T07:20:59.319Z,98319.59
2023-05-19T07:23:26.869Z,98317.50
2023-05-19T07:25:56.004Z,98319.81
2023-05-19T07:28:25.013Z,98316.09
2023-05-19T07:30:53.151Z,98309.69
2023-05-19T07:33:20.692Z,98311.75
2023-05-19T07:35:49.045Z,98309.41
2023-05-19T07:38:16.624Z,98304.06
2023-05-19T07:40:44.128Z,98298.25
2023-05-19T07:43:11.768Z,98299.28
2023-05-19T07:45:41.116Z,98293.53
2023-05-19T07:48:08.853Z,98296.00
2023-05-19T07:50:36.994Z,98297.34
2023-05-19T07:53:04.582Z,98290.50
2023-05-19T07:55:32.090Z,98299.22
2023-05-19T07:57:59.642Z,98302.56
2023-05-19T08:00:27.495Z,98302.44
2023-05-19T08:02:56.923Z,98296.72
2023-05-19T08:05:25.575Z,98294.66
2023-05-19T08:07:53.153Z,98288.00
2023-05-19T08:10:20.651Z,98290.06
2023-05-19T08:12:48.332Z,98281.16
2023-05-19T08:15:16.514Z,98277.19
2023-05-19T08:17:44.052Z,98289.25
2023-05-19T08:20:13.615Z,98284.88
2023-05-19T08:22:41.466Z,98281.78
2023-05-19T08:25:09.450Z,98280.34
2023-05-19T08:27:37.254Z,98279.50
2023-05-19T08:30:05.482Z,98270.34
2023-05-19T08:32:33.040Z,98266.84
2023-05-19T08:35:00.560Z,98276.81
2023-05-19T08:37:29.818Z,98277.22
2023-05-19T08:39:58.327Z,98268.09
2023-05-19T08:42:25.892Z,98272.63
2023-05-19T08:44:53.539Z,98262.69
2023-05-19T08:47:21.202Z,98258.72
2023-05-19T08:49:53.411Z,98261.41
2023-05-19T08:52:28.655Z,98252.72
2023-05-19T08:55:05.841Z,98256.03
2023-05-19T08:57:34.076Z,98257.09
2023-05-19T09:00:02.050Z,98249.41
2023-05-19T09:02:30.396Z,98257.94
2023-05-19T09:04:57.972Z,98249.63
2023-05-19T09:07:26.621Z,98260.19
2023-05-19T09:09:54.226Z,98251.47
2023-05-19T09:12:23.604Z,98243.97
2023-05-19T09:14:51.499Z,98254.78
2023-05-19T09:17:19.202Z,98250.78
2023-05-19T09:19:48.080Z,98248.50
2023-05-19T09:22:19.043Z,98254.94
2023-05-19T09:24:46.607Z,98244.72
2023-05-19T09:27:16.295Z,98254.31
2023-05-19T09:29:45.506Z,98248.09
2023-05-19T09:32:13.162Z,98246.59
2023-05-19T09:34:42.682Z,98246.44
2023-05-19T09:37:10.214Z,98252.47
2023-05-19T09:39:39.658Z,98254.78
2023-05-19T09:42:07.235Z,98245.88
2023-05-19T09:44:36.412Z,98260.38
2023-05-19T09:47:05.578Z,98259.34
2023-05-19T09:49:33.827Z,98261.66
2023-05-19T09:52:04.206Z,98253.13
2023-05-19T09:54:32.428Z,98246.69
2023-05-19T09:57:00.292Z,98256.88
2023-05-19T09:59:32.578Z,98248.94
2023-05-19T10:02:02.874Z,98256.16
2023-05-19T10:04:32.456Z,98233.56
2023-05-19T10:07:00.423Z,98241.16
2023-05-19T10:09:29.386Z,98237.19
2023-05-19T10:11:58.703Z,98235.94
2023-05-19T10:14:27.439Z,98233.03
2023-05-19T10:16:56.505Z,98231.34
2023-05-19T10:19:26.232Z,98226.28
2023-05-19T10:21:55.941Z,98222.78
2023-05-19T10:24:23.511Z,98213.63
2023-05-19T10:26:57.023Z,98204.06
2023-05-19T10:29:29.614Z,98201.13
2023-05-19T10:31:58.951Z,98211.56
2023-05-19T10:34:53.386Z,98202.28
2023-05-19T10:37:33.157Z,98201.13
2023-05-19T10:40:01.469Z,98201.06
2023-05-19T10:42:34.787Z,98201.63
2023-05-19T10:45:14.334Z,98200.69
2023-05-19T10:47:42.231Z,98210.19
2023-05-19T10:50:11.113Z,98198.41
2023-05-19T10:52:41.192Z,98199.50
2023-05-19T10:55:10.037Z,98207.13
2023-05-19T10:57:37.674Z,98204.22
2023-05-19T11:00:11.606Z,98197.13
2023-05-19T11:02:41.764Z,98191.41
2023-05-19T11:05:10.556Z,98190.09
2023-05-19T11:07:38.262Z,98196.25
2023-05-19T11:10:11.045Z,98189.53
2023-05-19T11:12:43.395Z,98196.88
2023-05-19T11:15:15.547Z,98197.13
2023-05-19T11:17:46.162Z,98193.84
2023-05-19T11:20:23.876Z,98197.78
2023-05-19T11:23:09.889Z,98189.94
2023-05-19T11:25:46.929Z,98183.63
2023-05-19T11:28:17.527Z,98182.91
2023-05-19T11:30:46.797Z,98195.00
2023-05-19T11:33:14.804Z,98184.94
2023-05-19T11:35:43.235Z,98182.25
2023-05-19T11:38:12.384Z,98183.56
2023-05-19T11:40:40.378Z,98168.09
2023-05-19T11:43:09.202Z,98168.81
2023-05-19T11:45:37.472Z,98162.34
2023-05-19T11:48:06.926Z,98153.38
2023-05-19T11:50:35.217Z,98154.31
2023-05-19T11:53:02.881Z,98153.59
2023-05-19T11:55:31.249Z,98146.78
2023-05-19T12:00:37.089Z,98140.28
2023-05-19T12:03:05.518Z,98136.59
2023-05-19T12:05:38.030Z,98127.09
2023-05-19T12:08:08.748Z,98136.44
2023-05-19T12:10:39.950Z,98126.72
2023-05-19T12:13:09.397Z,98141.25
2023-05-19T12:15:39.508Z,98137.88
2023-05-19T12:18:07.489Z,98141.88
2023-05-19T12:20:36.585Z,98133.22
2023-05-19T12:23:04.811Z,98141.22
2023-05-19T12:25:33.075Z,98138.59
2023-05-19T12:28:02.769Z,98135.50
2023-05-19T12:30:32.201Z,98126.19
2023-05-19T12:33:03.357Z,98128.41
2023-05-19T12:35:33.201Z,98121.53
2023-05-19T12:38:04.476Z,98122.91
2023-05-19T12:40:33.021Z,98106.56
2023-05-19T12:43:02.783Z,98103.50
2023-05-19T12:45:35.360Z,98107.91
2023-05-19T12:48:06.308Z,98118.25
2023-05-19T12:50:35.024Z,98106.34
2023-05-19T12:53:02.914Z,98100.66
2023-05-19T12:55:30.951Z,98097.00
2023-05-19T12:57:58.730Z,98104.66
2023-05-19T13:00:28.993Z,98104.13
2023-05-19T13:03:02.052Z,98097.94
2023-05-19T13:05:33.552Z,98096.06
2023-05-19T13:08:03.313Z,98096.06
2023-05-19T13:10:31.504Z,98094.66
2023-05-19T13:13:00.544Z,98091.34
2023-05-19T13:15:31.641Z,98090.88
2023-05-19T13:17:59.431Z,98092.50
2023-05-19T13:20:30.389Z,98091.78
2023-05-19T13:23:00.292Z,98083.66
2023-05-19T13:25:28.738Z,98073.41
2023-05-19T13:28:05.182Z,98071.38
2023-05-19T13:30:35.623Z,98077.31
2023-05-19T13:33:03.665Z,98079.63
2023-05-19T13:35:36.719Z,98079.31
2023-05-19T13:38:06.712Z,98078.03
2023-05-19T13:40:34.740Z,98076.91
2023-05-19T13:43:03.000Z,98077.66
2023-05-19T13:45:30.964Z,98088.25
2023-05-19T13:47:58.721Z,98082.13
2023-05-19T13:50:26.459Z,98076.13
2023-05-19T13:52:54.359Z,98070.69
2023-05-19T13:55:23.582Z,98064.41
2023-05-19T13:57:51.101Z,98075.78
2023-05-19T14:00:20.029Z,98073.78
2023-05-19T14:02:47.693Z,98075.06
2023-05-19T14:05:15.325Z,98067.50
2023-05-19T14:07:42.921Z,98066.81
2023-05-19T14:10:11.091Z,98067.38
2023-05-19T14:12:55.039Z,98060.75
2023-05-19T14:15:27.410Z,98058.78
2023-05-19T14:17:55.020Z,98061.03
2023-05-19T14:20:22.762Z,98059.50
2023-05-19T14:22:50.301Z,98060.56
2023-05-19T14:25:17.993Z,98047.66
2023-05-19T14:27:46.864Z,98055.59
2023-05-19T14:30:14.678Z,98040.84
2023-05-19T14:32:42.258Z,98047.66
2023-05-19T14:35:10.428Z,98052.97
2023-05-19T14:37:37.917Z,98045.06
2023-05-19T14:40:06.779Z,98041.53
2023-05-19T14:42:34.296Z,98042.22
2023-05-19T14:45:03.140Z,98031.84
2023-05-19T14:47:30.778Z,98029.88
2023-05-19T14:49:58.329Z,98024.16
2023-05-19T14:52:26.153Z,98034.69
2023-05-19T14:54:54.050Z,98022.31
2023-05-19T14:57:21.539Z,98034.13
2023-05-19T14:59:49.224Z,98028.47
2023-05-19T15:02:18.102Z,98030.09
2023-05-19T15:04:45.730Z,98022.16
2023-05-19T15:07:13.271Z,98028.47
2023-05-19T15:09:41.005Z,98028.66
2023-05-19T15:12:08.500Z,98026.69
2023-05-19T15:14:36.009Z,98029.31
2023-05-19T15:17:03.610Z,98039.03
2023-05-19T15:19:32.712Z,98034.66
2023-05-19T15:22:00.224Z,98025.88
2023-05-19T15:24:28.093Z,98026.22
2023-05-19T15:26:56.386Z,98026.38
2023-05-19T15:29:23.863Z,98026.38
2023-05-19T15:31:51.873Z,98021.63
2023-05-19T15:34:19.722Z,98026.63
2023-05-19T15:36:48.574Z,98028.59
2023-05-19T15:39:16.136Z,98035.19
2023-05-19T15:41:43.671Z,98028.44
2023-05-19T15:44:11.234Z,98032.50
2023-05-19T15:46:38.789Z,98031.53
2023-05-19T15:49:06.323Z,98029.38
2023-05-19T15:51:33.905Z,98025.59
2023-05-19T15:54:02.840Z,98033.94
2023-05-19T15:56:30.372Z,98022.59
2023-05-19T15:58:57.860Z,98017.16
2023-05-19T16:01:25.524Z,98023.69
2023-05-19T16:03:53.407Z,98025.44
2023-05-19T16:06:21.052Z,98022.75
2023-05-19T16:08:48.569Z,98025.91
2023-05-19T16:11:18.179Z,98021.44
2023-05-19T16:13:45.678Z,98022.84
2023-05-19T16:16:13.269Z,98024.66
2023-05-19T16:18:40.873Z,98018.41
2023-05-19T16:21:08.421Z,98015.69
2023-05-19T16:23:35.896Z,98015.31
2023-05-19T16:26:03.483Z,98014.16
2023-05-19T16:28:32.382Z,98013.44
2023-05-19T16:31:00.148Z,98014.63
2023-05-19T16:33:28.210Z,98013.44
2023-05-19T16:35:56.064Z,98019.59
2023-05-19T16:38:23.653Z,98019.00
2023-05-19T16:40:51.146Z,98024.41
2023-05-19T16:43:18.656Z,98018.16
2023-05-19T16:45:47.622Z,98027.84
2023-05-19T16:48:15.223Z,98026.09
2023-05-19T16:50:42.812Z,98020.53
2023-05-19T16:53:10.409Z,98022.06
2023-05-19T16:55:37.875Z,98024.31
2023-05-19T16:58:05.405Z,98017.72
2023-05-19T17:00:33.104Z,98018.53
2023-05-19T17:03:02.185Z,98017.72
2023-05-19T17:05:29.765Z,98023.13
2023-05-19T17:07:57.277Z,98022.31
2023-05-19T17:10:24.769Z,98015.81
2023-05-19T17:12:52.265Z,98011.09
2023-05-19T17:15:19.755Z,98011.66
2023-05-19T17:17:47.259Z,98015.09
2023-05-19T17:20:16.380Z,98011.75
2023-05-19T17:22:43.921Z,98016.66
2023-05-19T17:25:11.615Z,98018.53
2023-05-19T17:27:39.208Z,98014.22
2023-05-19T17:30:08.656Z,98019.50
2023-05-19T17:32:39.386Z,98026.47
2023-05-19T17:35:08.322Z,98019.47
2023-05-19T17:37:37.177Z,98024.03
2023-05-19T17:40:05.377Z,98014.41
2023-05-19T17:42:32.717Z,98021.44
2023-05-19T17:45:00.224Z,98024.59
2023-05-19T17:47:27.772Z,98025.19
2023-05-19T17:49:55.300Z,98022.03
2023-05-19T17:52:23.813Z,98022.75
2023-05-19T17:54:53.656Z,98025.94
2023-05-19T17:57:25.721Z,98032.41
2023-05-19T17:59:53.951Z,98027.22
2023-05-19T18:02:21.615Z,98033.44
2023-05-19T18:04:49.704Z,98032.88
2023-05-19T18:07:18.899Z,98030.00
2023-05-19T18:09:47.135Z,98021.88
2023-05-19T18:12:16.167Z,98024.38
2023-05-19T18:14:43.730Z,98019.63
2023-05-19T18:17:11.300Z,98023.41
2023-05-19T18:19:38.797Z,98029.38
2023-05-19T18:22:06.291Z,98024.78
2023-05-19T18:24:33.796Z,98027.03
2023-05-19T18:27:01.582Z,98025.22
2023-05-19T18:29:30.551Z,98026.06
2023-05-19T18:31:58.041Z,98026.38
2023-05-19T18:34:27.547Z,98033.91
2023-05-19T18:36:55.055Z,98034.50
2023-05-19T18:39:22.576Z,98032.03
2023-05-19T18:41:50.702Z,98029.19
2023-05-19T18:44:18.294Z,98027.53
2023-05-19T18:46:47.152Z,98027.38
2023-05-19T18:49:14.674Z,98036.06
2023-05-19T18:51:42.448Z,98033.25
2023-05-19T18:54:10.030Z,98034.28
2023-05-19T18:56:37.587Z,98036.88
2023-05-19T18:59:05.113Z,98039.66
2023-05-19T19:01:32.768Z,98043.66
2023-05-19T19:04:02.825Z,98041.63
2023-05-19T19:06:31.125Z,98049.28
2023-05-19T19:08:58.665Z,98049.53
2023-05-19T19:11:26.351Z,98060.38
2023-05-19T19:13:55.541Z,98057.28
2023-05-19T19:16:23.325Z,98053.31
2023-05-19T19:18:51.073Z,98058.03
2023-05-19T19:21:22.165Z,98057.81
2023-05-19T19:23:49.705Z,98067.00
2023-05-19T19:26:17.428Z,98057.38
2023-05-19T19:28:45.233Z,98067.13
2023-05-19T19:31:12.736Z,98063.97
2023-05-19T19:33:43.187Z,98066.63
2023-05-19T19:36:11.139Z,98071.59
2023-05-19T19:38:39.959Z,98064.88
2023-05-19T19:41:07.480Z,98065.69
2023-05-19T19:43:35.292Z,98069.28
2023-05-19T19:46:06.962Z,98075.03
2023-05-19T19:48:34.523Z,98078.41
2023-05-19T19:51:02.071Z,98076.31
2023-05-19T19:53:32.180Z,98074.97
2023-05-19T19:56:01.966Z,98077.09
2023-05-19T19:58:30.155Z,98083.50
2023-05-19T20:00:58.638Z,98090.38
2023-05-19T20:03:26.934Z,98079.50
2023-05-19T20:05:56.262Z,98083.59
2023-05-19T20:08:27.379Z,98075.94
2023-05-19T20:10:55.060Z,98080.22
2023-05-19T20:13:24.276Z,98086.34
2023-05-19T20:15:51.843Z,98083.69
2023-05-19T20:18:19.363Z,98086.00
2023-05-19T20:20:47.100Z,98079.16
2023-05-19T20:23:16.137Z,98083.03
2023-05-19T20:25:57.923Z,98088.03
2023-05-19T20:28:31.602Z,98080.19
2023-05-19T20:30:59.137Z,98072.47
2023-05-19T20:33:26.703Z,98074.34
2023-05-19T20:35:56.590Z,98079.16
2023-05-19T20:38:24.128Z,98078.81
2023-05-19T20:40:51.646Z,98073.88
2023-05-19T20:43:19.251Z,98073.56
2023-05-19T20:45:48.465Z,98080.63
2023-05-19T20:48:16.467Z,98084.63
2023-05-19T20:50:44.092Z,98089.41
2023-05-19T20:53:11.658Z,98092.16
2023-05-19T20:55:39.564Z,98091.22
2023-05-19T20:58:08.449Z,98092.59
2023-05-19T21:00:36.252Z,98089.22
2023-05-19T21:03:05.857Z,98085.78
2023-05-19T21:05:33.680Z,98082.28
2023-05-19T21:08:01.256Z,98084.28
2023-05-19T21:10:28.812Z,98084.69
2023-05-19T21:12:58.770Z,98077.75
2023-05-19T21:15:27.107Z,98083.25
2023-05-19T21:17:54.644Z,98081.72
2023-05-19T21:20:23.733Z,98090.72
2023-05-19T21:22:51.318Z,98073.69
2023-05-19T21:25:19.112Z,98088.97
2023-05-19T21:27:47.406Z,98079.19
2023-05-19T21:30:15.108Z,98072.47
2023-05-19T21:32:42.620Z,98081.19
2023-05-19T21:35:10.280Z,98080.75
2023-05-19T21:37:39.157Z,98077.31
2023-05-19T21:40:07.935Z,98075.22
2023-05-19T21:42:36.001Z,98080.56
2023-05-19T21:45:03.667Z,98064.16
2023-05-19T21:47:31.330Z,98078.44
2023-05-19T21:49:58.882Z,98080.19
2023-05-19T21:52:26.471Z,98084.03
2023-05-19T21:54:56.076Z,98074.25
2023-05-19T21:57:23.636Z,98071.22
2023-05-19T21:59:51.111Z,98068.56
2023-05-19T22:02:18.681Z,98060.53
2023-05-19T22:04:46.319Z,98057.63
2023-05-19T22:07:13.872Z,98060.28
2023-05-19T22:09:41.406Z,98056.94
2023-05-19T22:12:10.414Z,98059.16
2023-05-19T22:14:37.879Z,98053.22
2023-05-19T22:17:05.792Z,98067.22
2023-05-19T22:19:33.408Z,98062.63
2023-05-19T22:22:10.233Z,98056.53
2023-05-19T22:24:41.216Z,98051.16
2023-05-19T22:27:10.416Z,98054.53
2023-05-19T22:29:38.672Z,98051.06
2023-05-19T22:32:07.581Z,98054.13
2023-05-19T22:34:35.187Z,98052.63
2023-05-19T22:37:02.792Z,98051.69
2023-05-19T22:39:30.295Z,98044.81
2023-05-19T22:41:57.878Z,98043.63
2023-05-19T22:44:26.846Z,98043.56
2023-05-19T22:46:54.343Z,98045.44
2023-05-19T22:49:22.751Z,98042.50
2023-05-19T22:51:50.433Z,98033.84
2023-05-19T22:54:18.173Z,98034.09
2023-05-19T22:56:48.328Z,98037.38
2023-05-19T22:59:17.542Z,98038.22
2023-05-19T23:01:47.026Z,98026.53
2023-05-19T23:04:15.071Z,98035.94
2023-05-19T23:06:42.678Z,98034.22
2023-05-19T23:09:10.256Z,98025.03
2023-05-19T23:11:37.755Z,98031.72
2023-05-19T23:14:05.529Z,98031.19
2023-05-19T23:16:33.298Z,98018.41
2023-05-19T23:19:02.385Z,98023.81
2023-05-19T23:21:31.239Z,98018.09
2023-05-19T23:23:59.364Z,98014.44
2023-05-19T23:26:27.309Z,98017.84
2023-05-19T23:28:54.834Z,98024.53
2023-05-19T23:31:22.340Z,98009.78
2023-05-19T23:33:50.156Z,98013.72
2023-05-19T23:36:19.190Z,98016.59
2023-05-19T23:38:46.742Z,98019.50
2023-05-19T23:41:14.693Z,98008.16
2023-05-19T23:43:42.187Z,98003.94
2023-05-19T23:46:12.070Z,98011.03
2023-05-19T23:48:39.835Z,98014.13
2023-05-19T23:51:07.693Z,98013.69
2023-05-19T23:53:36.581Z,98003.22
2023-05-19T23:56:04.035Z,98013.41
2023-05-19T23:58:31.665Z,98001.09
